Terminal Aerodrome Forecast
Issued by NWS

Current Version | Previous Version | Text Only | Print | Product List | Glossary Off
Versions: 1 2 3 4 5 6 7 8 9 10 11 12 13 14 15 16 17 18

000
FTUS41 KILN 270100 AAA
TAFLCK
TAF AMD
KLCK 270142Z 2702/2724 18013G23KT P6SM VCTS BKN050CB
      TEMPO 2702/2703 5SM -TSRA OVC025CB
     FM270300 20012KT P6SM SCT040 BKN250
     FM270900 20007KT P6SM BKN010
     FM271500 21010KT P6SM SCT030
     FM272000 23013G23KT P6SM VCTS BKN035CB=

USA.gov is the U.S. government's official web portal to all federal, state and local government web resources and services.